Vatan — 5B7158 — position and weather

sailwx.info

Track history (hours):
 
Tides and Currents Weather Stations Pressure Air Temp Water Temp Dewpoint Dewpoint Depression Visibility Wind Speed Wind Dir Waves Ship Positions

Vatan

Last reported at 2017-Sep-03 19:48 UTC. Time now 2017-Nov-24 12:45 UTC.
Position N 35°21' E 033°20'.
Warning: this ship's position is months out of date.

Length 36 m; draft 4.4 m.

Type: Tug. MMSI: 271055005.

Date/timePositionNaut miles runAvg speedWind from/ knotsBaromVisibWave heightAir tempDewpointWater temp
2017-Sep-03 19:48N 35°21' E 033°20'0 0.0
2017-Sep-03 19:30N 35°21' E 033°20'0 0.0
2017-Sep-03 17:11N 35°21' E 033°20'0 0.0
2017-Sep-03 16:26N 35°21' E 033°20'0 0.0
2017-Sep-03 15:55N 35°21' E 033°20'0 0.0
2017-Sep-03 15:26N 35°21' E 033°20'0 0.0
2017-Sep-03 14:00N 35°21' E 033°20'  
2017-Aug-28 14:17N 35°21' E 033°20'0 1.5
2017-Aug-28 13:59N 35°21' E 033°21'1 1.8
2017-Aug-28 13:30N 35°21' E 033°20'0 0.5
2017-Aug-28 12:58N 35°21' E 033°20'0 0.3
2017-Aug-28 12:31N 35°21' E 033°19'16 7.8
2017-Aug-28 10:23N 35°25' E 032°60'3 8.4
2017-Aug-28 10:00N 35°25' E 032°56'75 8.0
2017-Aug-28 00:39N 35°43' E 031°26'1 7.6
2017-Aug-28 00:30N 35°43' E 031°25'4 7.6
2017-Aug-28 00:00N 35°44' E 031°21'4 7.6
2017-Aug-27 23:30N 35°45' E 031°16'36 8.3
2017-Aug-27 19:12N 35°53' E 030°33'  
Track history (hours):
 
Tides and Currents Weather Stations Pressure Air Temp Water Temp Dewpoint Dewpoint Depression Visibility Wind Speed Wind Dir Waves Ship Positions

Vatan

Last reported at 2017-Sep-03 19:48 UTC. Time now 2017-Nov-24 12:45 UTC.
Position N 35°21' E 033°20'.
Warning: this ship's position is months out of date.

Length 36 m; draft 4.4 m.

Type: Tug. MMSI: 271055005.

Date/timePositionNaut miles runAvg speedWind from/ knotsBaromVisibWave heightAir tempDewpointWater temp
2017-Sep-03 19:48N 35°21' E 033°20'0 0.0
2017-Sep-03 19:30N 35°21' E 033°20'0 0.0
2017-Sep-03 17:11N 35°21' E 033°20'0 0.0
2017-Sep-03 16:26N 35°21' E 033°20'0 0.0
2017-Sep-03 15:55N 35°21' E 033°20'0 0.0
2017-Sep-03 15:26N 35°21' E 033°20'0 0.0
2017-Sep-03 14:00N 35°21' E 033°20'  
2017-Aug-28 14:17N 35°21' E 033°20'0 1.5
2017-Aug-28 13:59N 35°21' E 033°21'1 1.8
2017-Aug-28 13:30N 35°21' E 033°20'0 0.5
2017-Aug-28 12:58N 35°21' E 033°20'0 0.3
2017-Aug-28 12:31N 35°21' E 033°19'16 7.8
2017-Aug-28 10:23N 35°25' E 032°60'3 8.4
2017-Aug-28 10:00N 35°25' E 032°56'75 8.0
2017-Aug-28 00:39N 35°43' E 031°26'1 7.6
2017-Aug-28 00:30N 35°43' E 031°25'4 7.6
2017-Aug-28 00:00N 35°44' E 031°21'4 7.6
2017-Aug-27 23:30N 35°45' E 031°16'36 8.3
2017-Aug-27 19:12N 35°53' E 030°33'  

Dump ship's entire track history